This is the latest recevied weather packets stored in our database for station/object F4IKI-10. If no packets are shown the sender has not sent any weather packets the latest 10 day(s).
| Time | Temp. | Humidity | Pressure | Rain* | Wind** | Luminosity | Snow |
|---|---|---|---|---|---|---|---|
| 1777129834 | 20° C | 61% | 1022.4 hPa | - | - | - | - |
| 1777128934 | 20° C | 61% | 1022.5 hPa | - | - | - | - |
| 1777128033 | 20° C | 61% | 1022.6 hPa | - | - | - | - |
| 1777127133 | 20° C | 60% | 1022.6 hPa | - | - | - | - |
| 1777126233 | 20° C | 61% | 1022.7 hPa | - | - | - | - |
| 1777125333 | 18.89° C | 64% | 1022.9 hPa | - | - | - | - |
| 1777124433 | 18.89° C | 64% | 1023.1 hPa | - | - | - | - |
| 1777123533 | 18.89° C | 64% | 1023.1 hPa | - | - | - | - |
| 1777122633 | 18.89° C | 63% | 1023.2 hPa | - | - | - | - |
| 1777121733 | 19.44° C | 62% | 1023 hPa | - | - | - | - |
| 1777120833 | 18.89° C | 63% | 1023.1 hPa | - | - | - | - |
| 1777119932 | 18.89° C | 65% | 1023.1 hPa | - | - | - | - |
| 1777119032 | 18.89° C | 65% | 1023.2 hPa | - | - | - | - |
| 1777118132 | 18.33° C | 65% | 1023.2 hPa | - | - | - | - |
| 1777117232 | 18.89° C | 65% | 1023.2 hPa | - | - | - | - |
| 1777116332 | 18.89° C | 65% | 1023.4 hPa | - | - | - | - |
| 1777115432 | 18.89° C | 65% | 1023.4 hPa | - | - | - | - |
| 1777114532 | 18.89° C | 65% | 1023.5 hPa | - | - | - | - |
| 1777113632 | 18.33° C | 66% | 1023.5 hPa | - | - | - | - |
| 1777112731 | 18.33° C | 67% | 1023.6 hPa | - | - | - | - |
| 1777111831 | 18.33° C | 68% | 1023.6 hPa | - | - | - | - |
| 1777110931 | 18.33° C | 67% | 1023.6 hPa | - | - | - | - |
| 1777110031 | 18.33° C | 67% | 1023.7 hPa | - | - | - | - |
| 1777109131 | 18.33° C | 68% | 1023.7 hPa | - | - | - | - |
| 1777108231 | 18.89° C | 68% | 1023.6 hPa | - | - | - | - |
* Rain since midnight (hover to see other rain measurements)
** Current wind speed in m/s (hover to see current wind gust speed)